sensor_id;sensor_type;location;lat;lon;timestamp;temperature;humidity
39345;DHT22;25061;51.954;6.996;2023-02-01T00:01:51;4.70;99.90
39345;DHT22;25061;51.954;6.996;2023-02-01T00:04:16;4.80;99.90
39345;DHT22;25061;51.954;6.996;2023-02-01T00:06:42;4.70;99.90
39345;DHT22;25061;51.954;6.996;2023-02-01T00:09:07;4.80;99.90
39345;DHT22;25061;51.954;6.996;2023-02-01T00:11:33;4.80;99.90
39345;DHT22;25061;51.954;6.996;2023-02-01T00:13:59;4.80;99.90
39345;DHT22;25061;51.954;6.996;2023-02-01T00:16:27;4.80;99.90
39345;DHT22;25061;51.954;6.996;2023-02-01T00:19:10;4.80;99.90
39345;DHT22;25061;51.954;6.996;2023-02-01T00:21:36;4.80;99.90
39345;DHT22;25061;51.954;6.996;2023-02-01T00:24:03;4.80;99.90
39345;DHT22;25061;51.954;6.996;2023-02-01T00:26:34;4.80;99.90
39345;DHT22;25061;51.954;6.996;2023-02-01T00:29:02;4.80;99.90
39345;DHT22;25061;51.954;6.996;2023-02-01T00:31:27;4.80;99.90
39345;DHT22;25061;51.954;6.996;2023-02-01T00:33:53;4.80;99.90
39345;DHT22;25061;51.954;6.996;2023-02-01T00:36:19;4.80;99.90
39345;DHT22;25061;51.954;6.996;2023-02-01T00:38:44;4.70;99.90
39345;DHT22;25061;51.954;6.996;2023-02-01T00:41:18;4.70;99.90
39345;DHT22;25061;51.954;6.996;2023-02-01T00:43:45;4.70;99.90
39345;DHT22;25061;51.954;6.996;2023-02-01T00:46:12;4.70;99.90
39345;DHT22;25061;51.954;6.996;2023-02-01T00:48:39;4.70;99.90
39345;DHT22;25061;51.954;6.996;2023-02-01T00:51:27;4.70;99.90
39345;DHT22;25061;51.954;6.996;2023-02-01T00:53:53;4.60;99.90
39345;DHT22;25061;51.954;6.996;2023-02-01T00:56:19;4.60;99.90
39345;DHT22;25061;51.954;6.996;2023-02-01T00:58:45;4.60;99.90
39345;DHT22;25061;51.954;6.996;2023-02-01T01:03:42;4.60;99.90
39345;DHT22;25061;51.954;6.996;2023-02-01T01:06:10;4.60;99.90
39345;DHT22;25061;51.954;6.996;2023-02-01T01:08:37;4.60;99.90
39345;DHT22;25061;51.954;6.996;2023-02-01T01:11:10;4.60;99.90
39345;DHT22;25061;51.954;6.996;2023-02-01T01:13:36;4.60;99.90
39345;DHT22;25061;51.954;6.996;2023-02-01T01:16:04;4.60;99.90
39345;DHT22;25061;51.954;6.996;2023-02-01T01:18:31;4.60;99.90
39345;DHT22;25061;51.954;6.996;2023-02-01T01:20:57;4.50;99.90
39345;DHT22;25061;51.954;6.996;2023-02-01T01:23:23;4.50;99.90
39345;DHT22;25061;51.954;6.996;2023-02-01T01:25:49;4.60;99.90
39345;DHT22;25061;51.954;6.996;2023-02-01T01:28:15;4.50;99.90
39345;DHT22;25061;51.954;6.996;2023-02-01T01:30:41;4.60;99.90
39345;DHT22;25061;51.954;6.996;2023-02-01T01:33:06;4.50;99.90
39345;DHT22;25061;51.954;6.996;2023-02-01T01:35:32;4.50;99.90
39345;DHT22;25061;51.954;6.996;2023-02-01T01:37:59;4.60;99.90
39345;DHT22;25061;51.954;6.996;2023-02-01T01:40:26;4.60;99.90
39345;DHT22;25061;51.954;6.996;2023-02-01T01:42:51;4.60;99.90
39345;DHT22;25061;51.954;6.996;2023-02-01T01:45:28;4.70;99.90
39345;DHT22;25061;51.954;6.996;2023-02-01T01:47:58;4.70;99.90
39345;DHT22;25061;51.954;6.996;2023-02-01T01:50:30;4.70;99.90
39345;DHT22;25061;51.954;6.996;2023-02-01T01:52:58;4.70;99.90
39345;DHT22;25061;51.954;6.996;2023-02-01T01:55:28;4.70;99.90
39345;DHT22;25061;51.954;6.996;2023-02-01T01:58:02;4.80;99.90
39345;DHT22;25061;51.954;6.996;2023-02-01T02:00:28;4.80;99.90
39345;DHT22;25061;51.954;6.996;2023-02-01T02:03:00;4.80;99.90
39345;DHT22;25061;51.954;6.996;2023-02-01T02:05:29;4.90;99.90
39345;DHT22;25061;51.954;6.996;2023-02-01T02:07:58;4.80;99.90
39345;DHT22;25061;51.954;6.996;2023-02-01T02:10:26;4.80;99.90
39345;DHT22;25061;51.954;6.996;2023-02-01T02:13:13;4.80;99.90
39345;DHT22;25061;51.954;6.996;2023-02-01T02:15:45;4.80;99.90
39345;DHT22;25061;51.954;6.996;2023-02-01T02:24:17;4.80;99.90
39345;DHT22;25061;51.954;6.996;2023-02-01T02:27:17;4.80;99.90
39345;DHT22;25061;51.954;6.996;2023-02-01T02:38:32;4.70;99.90
39345;DHT22;25061;51.954;6.996;2023-02-01T02:41:05;4.70;99.90
39345;DHT22;25061;51.954;6.996;2023-02-01T02:43:38;4.70;99.90
39345;DHT22;25061;51.954;6.996;2023-02-01T02:46:36;4.80;99.90
39345;DHT22;25061;51.954;6.996;2023-02-01T02:49:41;4.70;99.90
39345;DHT22;25061;51.954;6.996;2023-02-01T02:52:17;4.80;99.90
39345;DHT22;25061;51.954;6.996;2023-02-01T02:55:04;4.80;99.90
39345;DHT22;25061;51.954;6.996;2023-02-01T02:57:32;4.90;99.90
39345;DHT22;25061;51.954;6.996;2023-02-01T03:00:20;4.90;99.90
39345;DHT22;25061;51.954;6.996;2023-02-01T03:03:06;4.80;99.90
39345;DHT22;25061;51.954;6.996;2023-02-01T03:05:51;4.80;99.90
39345;DHT22;25061;51.954;6.996;2023-02-01T03:08:28;4.80;99.90
39345;DHT22;25061;51.954;6.996;2023-02-01T03:11:08;4.80;99.90
39345;DHT22;25061;51.954;6.996;2023-02-01T03:13:56;4.80;99.90
39345;DHT22;25061;51.954;6.996;2023-02-01T03:16:38;4.80;99.90
39345;DHT22;25061;51.954;6.996;2023-02-01T03:21:43;4.80;99.90
39345;DHT22;25061;51.954;6.996;2023-02-01T03:26:44;4.90;99.90
39345;DHT22;25061;51.954;6.996;2023-02-01T03:29:27;4.90;99.90
39345;DHT22;25061;51.954;6.996;2023-02-01T03:31:56;4.90;99.90
39345;DHT22;25061;51.954;6.996;2023-02-01T03:34:21;4.90;99.90
39345;DHT22;25061;51.954;6.996;2023-02-01T03:37:00;4.90;99.90
39345;DHT22;25061;51.954;6.996;2023-02-01T03:39:34;4.90;99.90
39345;DHT22;25061;51.954;6.996;2023-02-01T03:42:26;4.90;99.90
39345;DHT22;25061;51.954;6.996;2023-02-01T03:45:08;4.90;99.90
39345;DHT22;25061;51.954;6.996;2023-02-01T03:47:36;4.80;99.90
39345;DHT22;25061;51.954;6.996;2023-02-01T03:50:18;4.80;99.90
39345;DHT22;25061;51.954;6.996;2023-02-01T03:52:50;4.80;99.90
39345;DHT22;25061;51.954;6.996;2023-02-01T03:55:18;4.90;99.90
39345;DHT22;25061;51.954;6.996;2023-02-01T03:57:53;4.80;99.90
39345;DHT22;25061;51.954;6.996;2023-02-01T15:19:19;6.50;99.90
39345;DHT22;25061;51.954;6.996;2023-02-01T15:21:47;6.60;99.90
39345;DHT22;25061;51.954;6.996;2023-02-01T15:24:27;6.50;99.90
39345;DHT22;25061;51.954;6.996;2023-02-01T15:26:54;6.50;99.90
39345;DHT22;25061;51.954;6.996;2023-02-01T15:29:22;6.60;99.90
39345;DHT22;25061;51.954;6.996;2023-02-01T15:31:52;6.60;99.90
39345;DHT22;25061;51.954;6.996;2023-02-01T15:34:19;6.60;99.90
39345;DHT22;25061;51.954;6.996;2023-02-01T15:36:46;6.50;99.90
39345;DHT22;25061;51.954;6.996;2023-02-01T15:39:17;6.50;99.90
39345;DHT22;25061;51.954;6.996;2023-02-01T15:44:41;6.50;99.90
39345;DHT22;25061;51.954;6.996;2023-02-01T15:47:15;6.40;99.90
39345;DHT22;25061;51.954;6.996;2023-02-01T15:49:41;6.30;99.90
39345;DHT22;25061;51.954;6.996;2023-02-01T15:52:39;6.30;99.90
39345;DHT22;25061;51.954;6.996;2023-02-01T15:55:08;6.20;99.90
39345;DHT22;25061;51.954;6.996;2023-02-01T15:57:42;6.20;99.90
39345;DHT22;25061;51.954;6.996;2023-02-01T16:00:22;6.20;99.90
39345;DHT22;25061;51.954;6.996;2023-02-01T16:02:53;6.10;99.90
39345;DHT22;25061;51.954;6.996;2023-02-01T16:05:33;6.10;99.90
39345;DHT22;25061;51.954;6.996;2023-02-01T16:08:17;6.10;99.90
39345;DHT22;25061;51.954;6.996;2023-02-01T16:13:21;6.10;99.90
39345;DHT22;25061;51.954;6.996;2023-02-01T16:15:47;6.10;99.90
39345;DHT22;25061;51.954;6.996;2023-02-01T16:18:14;6.10;99.90
39345;DHT22;25061;51.954;6.996;2023-02-01T16:20:41;6.10;99.90
39345;DHT22;25061;51.954;6.996;2023-02-01T16:23:08;6.10;99.90
39345;DHT22;25061;51.954;6.996;2023-02-01T16:25:34;6.10;99.90
39345;DHT22;25061;51.954;6.996;2023-02-01T16:27:59;6.10;99.90
39345;DHT22;25061;51.954;6.996;2023-02-01T16:30:25;6.00;99.90
39345;DHT22;25061;51.954;6.996;2023-02-01T16:32:59;6.00;99.90
39345;DHT22;25061;51.954;6.996;2023-02-01T16:35:36;5.90;99.90
39345;DHT22;25061;51.954;6.996;2023-02-01T16:38:10;5.80;99.90
39345;DHT22;25061;51.954;6.996;2023-02-01T16:40:39;5.80;99.90
39345;DHT22;25061;51.954;6.996;2023-02-01T16:43:14;5.70;99.90
39345;DHT22;25061;51.954;6.996;2023-02-01T16:45:40;5.60;99.90
39345;DHT22;25061;51.954;6.996;2023-02-01T16:48:07;5.60;99.90
39345;DHT22;25061;51.954;6.996;2023-02-01T16:50:33;5.60;99.90
39345;DHT22;25061;51.954;6.996;2023-02-01T16:52:59;5.50;99.90
39345;DHT22;25061;51.954;6.996;2023-02-01T16:55:26;5.50;99.90
39345;DHT22;25061;51.954;6.996;2023-02-01T16:57:53;5.60;99.90
39345;DHT22;25061;51.954;6.996;2023-02-01T17:00:18;5.60;99.90
39345;DHT22;25061;51.954;6.996;2023-02-01T17:02:45;5.50;99.90
39345;DHT22;25061;51.954;6.996;2023-02-01T17:05:11;5.50;99.90
39345;DHT22;25061;51.954;6.996;2023-02-01T17:07:38;5.50;99.90
39345;DHT22;25061;51.954;6.996;2023-02-01T17:10:08;5.50;99.90
39345;DHT22;25061;51.954;6.996;2023-02-01T17:12:43;5.40;99.90
39345;DHT22;25061;51.954;6.996;2023-02-01T17:15:10;5.40;99.90
39345;DHT22;25061;51.954;6.996;2023-02-01T17:17:37;5.40;99.90
39345;DHT22;25061;51.954;6.996;2023-02-01T17:20:04;5.40;99.90
39345;DHT22;25061;51.954;6.996;2023-02-01T17:22:31;5.40;99.90
39345;DHT22;25061;51.954;6.996;2023-02-01T17:24:56;5.30;99.90
39345;DHT22;25061;51.954;6.996;2023-02-01T17:27:22;5.30;99.90
39345;DHT22;25061;51.954;6.996;2023-02-01T17:29:48;5.30;99.90
39345;DHT22;25061;51.954;6.996;2023-02-01T17:32:22;5.30;99.90
39345;DHT22;25061;51.954;6.996;2023-02-01T17:35:21;5.20;99.90
39345;DHT22;25061;51.954;6.996;2023-02-01T17:37:48;5.20;99.90
39345;DHT22;25061;51.954;6.996;2023-02-01T17:40:14;5.20;99.90
39345;DHT22;25061;51.954;6.996;2023-02-01T17:42:40;5.20;99.90
39345;DHT22;25061;51.954;6.996;2023-02-01T17:45:34;5.20;99.90
39345;DHT22;25061;51.954;6.996;2023-02-01T17:48:11;5.20;99.90
39345;DHT22;25061;51.954;6.996;2023-02-01T17:50:37;5.20;99.90
39345;DHT22;25061;51.954;6.996;2023-02-01T17:53:04;5.20;99.90
39345;DHT22;25061;51.954;6.996;2023-02-01T17:55:35;5.20;99.90
39345;DHT22;25061;51.954;6.996;2023-02-01T17:58:01;5.20;99.90
39345;DHT22;25061;51.954;6.996;2023-02-01T18:00:27;5.10;99.90
39345;DHT22;25061;51.954;6.996;2023-02-01T18:02:52;5.10;99.90
39345;DHT22;25061;51.954;6.996;2023-02-01T18:07:43;5.20;99.90
39345;DHT22;25061;51.954;6.996;2023-02-01T18:10:10;5.20;99.90
39345;DHT22;25061;51.954;6.996;2023-02-01T18:12:36;5.20;99.90
39345;DHT22;25061;51.954;6.996;2023-02-01T18:15:18;5.30;99.90
39345;DHT22;25061;51.954;6.996;2023-02-01T18:17:44;5.30;99.90
39345;DHT22;25061;51.954;6.996;2023-02-01T18:20:19;5.20;99.90
39345;DHT22;25061;51.954;6.996;2023-02-01T18:22:45;5.20;99.90
39345;DHT22;25061;51.954;6.996;2023-02-01T18:25:18;5.20;99.90
39345;DHT22;25061;51.954;6.996;2023-02-01T18:27:46;5.20;99.90
39345;DHT22;25061;51.954;6.996;2023-02-01T18:30:12;5.10;99.90
39345;DHT22;25061;51.954;6.996;2023-02-01T18:32:41;4.90;99.90
39345;DHT22;25061;51.954;6.996;2023-02-01T18:35:18;4.60;99.90
39345;DHT22;25061;51.954;6.996;2023-02-01T18:37:44;4.40;99.90
39345;DHT22;25061;51.954;6.996;2023-02-01T18:40:32;4.40;99.90
39345;DHT22;25061;51.954;6.996;2023-02-01T18:42:59;4.40;99.90
39345;DHT22;25061;51.954;6.996;2023-02-01T18:48:01;4.30;99.90
39345;DHT22;25061;51.954;6.996;2023-02-01T18:50:32;4.40;99.90
39345;DHT22;25061;51.954;6.996;2023-02-01T18:52:59;4.40;99.90
39345;DHT22;25061;51.954;6.996;2023-02-01T18:55:27;4.40;99.90
39345;DHT22;25061;51.954;6.996;2023-02-01T18:57:54;4.40;99.90
39345;DHT22;25061;51.954;6.996;2023-02-01T19:00:21;4.40;99.90
39345;DHT22;25061;51.954;6.996;2023-02-01T19:02:47;4.50;99.90
39345;DHT22;25061;51.954;6.996;2023-02-01T19:05:13;4.50;99.90
39345;DHT22;25061;51.954;6.996;2023-02-01T19:07:40;4.50;99.90
39345;DHT22;25061;51.954;6.996;2023-02-01T19:10:09;4.50;99.90
39345;DHT22;25061;51.954;6.996;2023-02-01T19:12:40;4.50;99.90
39345;DHT22;25061;51.954;6.996;2023-02-01T19:15:10;4.50;99.90
39345;DHT22;25061;51.954;6.996;2023-02-01T19:17:39;4.50;99.90
39345;DHT22;25061;51.954;6.996;2023-02-01T19:20:14;4.50;99.90
39345;DHT22;25061;51.954;6.996;2023-02-01T19:22:40;4.50;99.90
39345;DHT22;25061;51.954;6.996;2023-02-01T19:25:13;4.50;99.90
39345;DHT22;25061;51.954;6.996;2023-02-01T19:27:39;4.40;99.90
39345;DHT22;25061;51.954;6.996;2023-02-01T19:30:05;4.30;99.90
39345;DHT22;25061;51.954;6.996;2023-02-01T19:32:30;4.40;99.90
39345;DHT22;25061;51.954;6.996;2023-02-01T19:34:56;4.50;99.90
39345;DHT22;25061;51.954;6.996;2023-02-01T19:37:22;4.60;99.90
39345;DHT22;25061;51.954;6.996;2023-02-01T19:39:48;4.70;99.90
39345;DHT22;25061;51.954;6.996;2023-02-01T19:42:14;4.70;99.90
39345;DHT22;25061;51.954;6.996;2023-02-01T19:44:40;4.80;99.90
39345;DHT22;25061;51.954;6.996;2023-02-01T19:47:05;4.80;99.90
39345;DHT22;25061;51.954;6.996;2023-02-01T19:49:31;4.90;99.90
39345;DHT22;25061;51.954;6.996;2023-02-01T19:51:57;4.90;99.90
39345;DHT22;25061;51.954;6.996;2023-02-01T19:54:22;4.90;99.90
39345;DHT22;25061;51.954;6.996;2023-02-01T19:56:48;5.00;99.90
39345;DHT22;25061;51.954;6.996;2023-02-01T19:59:16;5.00;99.90
39345;DHT22;25061;51.954;6.996;2023-02-01T20:01:42;5.00;99.90
39345;DHT22;25061;51.954;6.996;2023-02-01T20:04:14;5.00;99.90
39345;DHT22;25061;51.954;6.996;2023-02-01T20:06:42;5.10;99.90
39345;DHT22;25061;51.954;6.996;2023-02-01T20:09:21;5.10;99.90
39345;DHT22;25061;51.954;6.996;2023-02-01T20:11:48;5.00;99.90
39345;DHT22;25061;51.954;6.996;2023-02-01T20:14:14;5.00;99.90
39345;DHT22;25061;51.954;6.996;2023-02-01T20:16:40;5.00;99.90
39345;DHT22;25061;51.954;6.996;2023-02-01T20:19:07;5.20;99.90
39345;DHT22;25061;51.954;6.996;2023-02-01T20:21:34;5.10;99.90
39345;DHT22;25061;51.954;6.996;2023-02-01T20:24:00;5.20;99.90
39345;DHT22;25061;51.954;6.996;2023-02-01T20:26:26;5.30;99.90
39345;DHT22;25061;51.954;6.996;2023-02-01T20:28:52;5.30;99.90
39345;DHT22;25061;51.954;6.996;2023-02-01T20:31:20;5.30;99.90
39345;DHT22;25061;51.954;6.996;2023-02-01T20:33:45;5.40;99.90
39345;DHT22;25061;51.954;6.996;2023-02-01T20:36:11;5.40;99.90
39345;DHT22;25061;51.954;6.996;2023-02-01T20:38:37;5.50;99.90
39345;DHT22;25061;51.954;6.996;2023-02-01T20:41:03;5.50;99.90
39345;DHT22;25061;51.954;6.996;2023-02-01T20:43:29;5.50;99.90
39345;DHT22;25061;51.954;6.996;2023-02-01T20:45:55;5.50;99.90
39345;DHT22;25061;51.954;6.996;2023-02-01T20:48:21;5.50;99.90
39345;DHT22;25061;51.954;6.996;2023-02-01T20:50:46;5.50;99.90
39345;DHT22;25061;51.954;6.996;2023-02-01T20:53:12;5.50;99.90
39345;DHT22;25061;51.954;6.996;2023-02-01T20:55:38;5.50;99.90
39345;DHT22;25061;51.954;6.996;2023-02-01T20:58:03;5.60;99.90
39345;DHT22;25061;51.954;6.996;2023-02-01T21:00:29;5.60;99.90
39345;DHT22;25061;51.954;6.996;2023-02-01T21:02:55;5.50;99.90
39345;DHT22;25061;51.954;6.996;2023-02-01T21:05:21;5.50;99.90
39345;DHT22;25061;51.954;6.996;2023-02-01T21:07:46;5.50;99.90
39345;DHT22;25061;51.954;6.996;2023-02-01T21:10:12;5.50;99.90
39345;DHT22;25061;51.954;6.996;2023-02-01T21:12:40;5.40;99.90
39345;DHT22;25061;51.954;6.996;2023-02-01T21:15:06;5.40;99.90
39345;DHT22;25061;51.954;6.996;2023-02-01T21:17:32;5.40;99.90
39345;DHT22;25061;51.954;6.996;2023-02-01T21:19:58;5.40;99.90
39345;DHT22;25061;51.954;6.996;2023-02-01T21:22:30;5.30;99.90
39345;DHT22;25061;51.954;6.996;2023-02-01T21:24:56;5.30;99.90
39345;DHT22;25061;51.954;6.996;2023-02-01T21:27:21;5.30;99.90
39345;DHT22;25061;51.954;6.996;2023-02-01T21:29:47;5.30;99.90
39345;DHT22;25061;51.954;6.996;2023-02-01T21:32:13;5.20;99.90
39345;DHT22;25061;51.954;6.996;2023-02-01T21:34:38;5.20;99.90
39345;DHT22;25061;51.954;6.996;2023-02-01T21:37:04;5.20;99.90
39345;DHT22;25061;51.954;6.996;2023-02-01T21:39:29;5.20;99.90
39345;DHT22;25061;51.954;6.996;2023-02-01T21:41:55;5.20;99.90
39345;DHT22;25061;51.954;6.996;2023-02-01T21:44:41;5.20;99.90
39345;DHT22;25061;51.954;6.996;2023-02-01T21:47:09;5.20;99.90
39345;DHT22;25061;51.954;6.996;2023-02-01T21:49:34;5.20;99.90
39345;DHT22;25061;51.954;6.996;2023-02-01T21:52:00;5.20;99.90
39345;DHT22;25061;51.954;6.996;2023-02-01T21:54:26;5.20;99.90
39345;DHT22;25061;51.954;6.996;2023-02-01T21:56:51;5.20;99.90
39345;DHT22;25061;51.954;6.996;2023-02-01T21:59:17;5.20;99.90
39345;DHT22;25061;51.954;6.996;2023-02-01T22:01:43;5.20;99.90
39345;DHT22;25061;51.954;6.996;2023-02-01T22:04:09;5.20;99.90
39345;DHT22;25061;51.954;6.996;2023-02-01T22:06:37;5.10;99.90
39345;DHT22;25061;51.954;6.996;2023-02-01T22:09:04;5.20;99.90
39345;DHT22;25061;51.954;6.996;2023-02-01T22:11:30;5.20;99.90
39345;DHT22;25061;51.954;6.996;2023-02-01T22:13:55;5.20;99.90
39345;DHT22;25061;51.954;6.996;2023-02-01T22:16:21;5.20;99.90
39345;DHT22;25061;51.954;6.996;2023-02-01T22:18:48;5.30;99.90
39345;DHT22;25061;51.954;6.996;2023-02-01T22:21:14;5.30;99.90
39345;DHT22;25061;51.954;6.996;2023-02-01T22:23:40;5.30;99.90
39345;DHT22;25061;51.954;6.996;2023-02-01T22:26:07;5.30;99.90
39345;DHT22;25061;51.954;6.996;2023-02-01T22:28:37;5.30;99.90
39345;DHT22;25061;51.954;6.996;2023-02-01T22:31:05;5.30;99.90
39345;DHT22;25061;51.954;6.996;2023-02-01T22:33:31;5.30;99.90
39345;DHT22;25061;51.954;6.996;2023-02-01T22:35:58;5.30;99.90
39345;DHT22;25061;51.954;6.996;2023-02-01T22:38:29;5.30;99.90
39345;DHT22;25061;51.954;6.996;2023-02-01T22:41:00;5.30;99.90
39345;DHT22;25061;51.954;6.996;2023-02-01T22:43:26;5.40;99.90
39345;DHT22;25061;51.954;6.996;2023-02-01T22:46:07;5.40;99.90
39345;DHT22;25061;51.954;6.996;2023-02-01T22:48:35;5.40;99.90
39345;DHT22;25061;51.954;6.996;2023-02-01T22:51:02;5.40;99.90
39345;DHT22;25061;51.954;6.996;2023-02-01T22:53:28;5.50;99.90
39345;DHT22;25061;51.954;6.996;2023-02-01T22:56:05;5.50;99.90
39345;DHT22;25061;51.954;6.996;2023-02-01T22:58:31;5.40;99.90
39345;DHT22;25061;51.954;6.996;2023-02-01T23:01:05;5.40;99.90
39345;DHT22;25061;51.954;6.996;2023-02-01T23:03:33;5.40;99.90
39345;DHT22;25061;51.954;6.996;2023-02-01T23:06:00;5.40;99.90
39345;DHT22;25061;51.954;6.996;2023-02-01T23:08:25;5.50;99.90
39345;DHT22;25061;51.954;6.996;2023-02-01T23:10:59;5.40;99.90
39345;DHT22;25061;51.954;6.996;2023-02-01T23:13:25;5.40;99.90
39345;DHT22;25061;51.954;6.996;2023-02-01T23:15:51;5.50;99.90
39345;DHT22;25061;51.954;6.996;2023-02-01T23:18:17;5.50;99.90
39345;DHT22;25061;51.954;6.996;2023-02-01T23:20:42;5.50;99.90
39345;DHT22;25061;51.954;6.996;2023-02-01T23:23:08;5.50;99.90
39345;DHT22;25061;51.954;6.996;2023-02-01T23:25:33;5.50;99.90
39345;DHT22;25061;51.954;6.996;2023-02-01T23:27:59;5.50;99.90
39345;DHT22;25061;51.954;6.996;2023-02-01T23:30:24;5.50;99.90
39345;DHT22;25061;51.954;6.996;2023-02-01T23:32:50;5.50;99.90
39345;DHT22;25061;51.954;6.996;2023-02-01T23:35:15;5.50;99.90
39345;DHT22;25061;51.954;6.996;2023-02-01T23:37:41;5.50;99.90
39345;DHT22;25061;51.954;6.996;2023-02-01T23:40:07;5.40;99.90
39345;DHT22;25061;51.954;6.996;2023-02-01T23:42:33;5.40;99.90
39345;DHT22;25061;51.954;6.996;2023-02-01T23:44:59;5.40;99.90
39345;DHT22;25061;51.954;6.996;2023-02-01T23:47:24;5.40;99.90
39345;DHT22;25061;51.954;6.996;2023-02-01T23:49:50;5.50;99.90
39345;DHT22;25061;51.954;6.996;2023-02-01T23:52:16;5.40;99.90
39345;DHT22;25061;51.954;6.996;2023-02-01T23:54:41;5.40;99.90
39345;DHT22;25061;51.954;6.996;2023-02-01T23:57:07;5.40;99.90
39345;DHT22;25061;51.954;6.996;2023-02-01T23:59:33;5.30;99.90
